Search for airport 
image banner adimage banner adimage banner ad
image banner ad

1Y5 - New Hampton Muni

Located in New Hampton, United States

ICAO - 1Y5, IATA -

Data provided by Airmate  

General information

Coordinates: N43°5'14" W92°20'36"
Elevation is 1173 feet MSL.
Magnetic variation is 03° East
View others Airports in Iowa

Operational data

Special qualification required
Current time UTC:
Current local time:
Weather at : KCCY - Northeast Iowa Rgnl ( 22 km )
METAR: KCCY 150855Z AUTO 35007KT 10SM CLR 16/08 A3010 RMK AO2
View NOTAMs / SUP AIP / TFR affecting this airport [VIEW]
Communications frequencies: [VIEW]

Runways:

RWY identifierQFULength (ft)Width (ft)SurfaceLDA (ft)
042300105GRASS
222300105GRASS
17290075ASPH
35290075ASPH

Airport contact information

Address: New Hampton United States

Satellite view of 1Y5